Time;durP1;ratioP1;P1;durP2;ratioP2;P2;SDS_P1;SDS_P2;PMS_P1;PMS_P2;Temp;Humidity;BMP_temperature;BMP_pressure;BME280_temperature;BME280_humidity;BME280_pressure;Samples;Min_cycle;Max_cycle;Signal;HPM_P1;HPM_P2
2021/05/28 00:02:15;;;;;;;8.53;4.73;;;8.70;99.90;;;;;;5055044;28;20462;-80
2021/05/28 00:04:42;;;;;;;10.47;4.83;;;8.70;99.90;;;;;;5055688;28;20483;-79
2021/05/28 00:07:08;;;;;;;9.23;4.27;;;8.70;99.90;;;;;;5056552;28;20519;-82
2021/05/28 00:09:34;;;;;;;10.47;4.40;;;8.80;99.90;;;;;;5054945;28;20519;-80
2021/05/28 00:12:01;;;;;;;15.53;4.90;;;8.90;99.90;;;;;;5053804;28;20963;-80
2021/05/28 00:14:27;;;;;;;11.27;5.00;;;8.90;99.90;;;;;;5056039;28;20464;-80
2021/05/28 00:16:55;;;;;;;8.57;4.33;;;9.00;99.90;;;;;;5056779;28;20515;-79
2021/05/28 00:19:21;;;;;;;14.80;5.63;;;9.10;99.90;;;;;;5055686;28;20451;-80
2021/05/28 00:21:47;;;;;;;10.40;5.47;;;9.20;99.90;;;;;;5055186;28;20506;-80
2021/05/28 00:24:14;;;;;;;12.70;4.80;;;9.20;99.90;;;;;;5055272;28;20496;-79
2021/05/28 00:26:40;;;;;;;9.90;4.90;;;9.30;99.90;;;;;;5055703;28;20447;-79
2021/05/28 00:29:06;;;;;;;11.60;5.40;;;9.40;99.90;;;;;;5055719;28;20452;-79
2021/05/28 00:31:32;;;;;;;11.43;4.70;;;9.40;99.90;;;;;;5055003;28;20559;-80
2021/05/28 00:34:00;;;;;;;9.97;4.97;;;9.50;99.90;;;;;;5056090;28;21254;-81
2021/05/28 00:36:26;;;;;;;10.27;5.23;;;9.60;99.90;;;;;;5055826;28;20448;-80
2021/05/28 00:38:53;;;;;;;9.17;4.50;;;9.60;99.90;;;;;;5052406;28;20505;-77
2021/05/28 00:41:19;;;;;;;12.67;5.17;;;9.70;99.90;;;;;;5051038;28;20456;-80
2021/05/28 00:43:46;;;;;;;7.80;3.90;;;9.70;99.90;;;;;;5051217;28;20906;-80
2021/05/28 00:46:12;;;;;;;11.30;5.67;;;9.70;99.90;;;;;;5051445;28;20447;-79
2021/05/28 00:48:38;;;;;;;13.00;6.50;;;9.80;99.90;;;;;;5051159;28;20452;-77
2021/05/28 00:51:06;;;;;;;10.13;5.70;;;9.80;99.90;;;;;;5051727;28;20825;-78
2021/05/28 00:53:33;;;;;;;9.87;5.10;;;9.90;99.90;;;;;;5050589;28;21003;-79
2021/05/28 00:56:00;;;;;;;10.70;5.30;;;9.90;99.90;;;;;;5050935;28;20483;-77
2021/05/28 00:58:27;;;;;;;9.30;4.70;;;9.90;99.90;;;;;;5055333;28;20498;-78
2021/05/28 01:00:53;;;;;;;11.23;4.73;;;9.90;99.90;;;;;;5054705;28;20964;-79
2021/05/28 01:03:20;;;;;;;10.43;6.13;;;10.00;99.90;;;;;;5054661;28;20496;-78
2021/05/28 01:05:46;;;;;;;11.83;6.20;;;10.00;99.90;;;;;;5054650;28;20558;-78
2021/05/28 01:08:13;;;;;;;11.07;5.60;;;10.00;99.90;;;;;;5055258;28;20459;-76
2021/05/28 01:10:40;;;;;;;9.10;4.70;;;10.00;99.90;;;;;;5055524;28;20462;-78
2021/05/28 01:13:07;;;;;;;11.83;5.80;;;10.10;99.90;;;;;;5054275;28;20468;-78
2021/05/28 01:15:34;;;;;;;8.97;4.73;;;10.10;99.90;;;;;;5054595;28;20467;-78
2021/05/28 01:18:01;;;;;;;8.97;4.73;;;10.10;99.90;;;;;;5055084;28;20452;-78
2021/05/28 01:20:27;;;;;;;9.33;4.63;;;10.10;99.90;;;;;;5054392;28;20508;-78
2021/05/28 01:22:56;;;;;;;10.50;4.80;;;10.10;99.90;;;;;;5054132;28;20495;-78
2021/05/28 01:25:23;;;;;;;10.90;4.40;;;10.20;99.90;;;;;;5054976;28;20992;-77
2021/05/28 01:27:49;;;;;;;12.50;4.93;;;10.10;99.90;;;;;;5054228;28;20454;-81
2021/05/28 01:30:16;;;;;;;8.80;4.23;;;10.10;99.90;;;;;;5055337;28;20452;-79
2021/05/28 01:32:43;;;;;;;10.47;5.10;;;10.10;99.90;;;;;;5053784;28;20458;-78
2021/05/28 01:35:11;;;;;;;9.80;4.90;;;10.10;99.90;;;;;;5054665;28;20539;-78
2021/05/28 01:37:38;;;;;;;9.50;4.30;;;10.10;99.90;;;;;;5054223;28;20458;-78
2021/05/28 01:40:06;;;;;;;9.80;4.23;;;10.10;99.90;;;;;;5054573;28;20458;-78
2021/05/28 01:42:33;;;;;;;10.10;4.50;;;10.00;99.90;;;;;;5053509;28;20458;-79
2021/05/28 01:45:02;;;;;;;8.43;4.20;;;10.00;99.90;;;;;;5054453;28;21020;-79
2021/05/28 01:47:29;;;;;;;11.23;5.00;;;10.00;99.90;;;;;;5054231;28;20452;-81
2021/05/28 01:49:55;;;;;;;9.33;4.03;;;10.00;99.90;;;;;;5054118;28;20452;-79
2021/05/28 01:52:23;;;;;;;10.10;4.37;;;9.90;99.90;;;;;;5053958;28;20837;-78
2021/05/28 01:54:49;;;;;;;9.43;3.97;;;9.80;99.90;;;;;;5053774;28;20569;-78
2021/05/28 01:57:16;;;;;;;8.50;4.13;;;9.70;99.90;;;;;;5054170;28;20538;-79
2021/05/28 01:59:43;;;;;;;9.53;4.20;;;9.60;99.90;;;;;;5053809;28;20458;-79
2021/05/28 02:02:10;;;;;;;10.50;4.00;;;9.50;99.90;;;;;;5053622;28;20440;-79
2021/05/28 02:04:36;;;;;;;9.33;3.90;;;9.40;99.90;;;;;;5053792;28;20484;-79
2021/05/28 02:07:04;;;;;;;9.97;3.73;;;9.30;99.90;;;;;;5053867;28;20448;-78
2021/05/28 02:09:31;;;;;;;11.57;3.77;;;9.20;99.90;;;;;;5053333;28;20984;-78
2021/05/28 02:11:58;;;;;;;7.97;3.40;;;9.10;99.90;;;;;;5052768;28;20884;-78
2021/05/28 02:14:26;;;;;;;9.03;4.70;;;9.00;99.90;;;;;;5054149;28;20501;-78
2021/05/28 02:16:52;;;;;;;10.40;4.27;;;8.90;99.90;;;;;;5055146;28;20448;-78
2021/05/28 02:19:20;;;;;;;10.23;4.17;;;8.80;99.90;;;;;;5056274;28;20451;-77
2021/05/28 02:21:46;;;;;;;10.53;5.40;;;8.80;99.90;;;;;;5055208;28;20488;-78
2021/05/28 02:24:15;;;;;;;9.10;4.40;;;8.70;99.90;;;;;;5053918;28;20495;-79
2021/05/28 02:26:43;;;;;;;8.00;3.70;;;8.60;99.90;;;;;;5055604;28;20455;-80
2021/05/28 02:29:09;;;;;;;10.00;3.50;;;8.60;99.90;;;;;;5055958;28;20460;-80
2021/05/28 02:31:36;;;;;;;6.80;3.43;;;8.50;99.90;;;;;;5055803;28;20501;-78
2021/05/28 02:34:04;;;;;;;7.90;3.77;;;8.40;99.90;;;;;;5056526;28;20471;-80
2021/05/28 02:36:30;;;;;;;8.27;3.80;;;8.40;99.90;;;;;;5056604;28;20452;-79
2021/05/28 02:38:57;;;;;;;12.53;4.00;;;8.30;99.90;;;;;;5056469;28;20551;-81
2021/05/28 02:41:23;;;;;;;16.20;4.33;;;8.30;99.90;;;;;;5054778;28;20531;-80
2021/05/28 02:43:50;;;;;;;11.07;4.33;;;8.30;99.90;;;;;;5054171;28;20864;-79
2021/05/28 02:46:16;;;;;;;8.63;3.87;;;8.30;99.90;;;;;;5054678;28;20983;-79
2021/05/28 02:48:43;;;;;;;11.60;5.00;;;8.20;99.90;;;;;;5055046;28;20806;-77
2021/05/28 02:51:10;;;;;;;8.80;3.50;;;8.20;99.90;;;;;;5054782;28;20816;-79
2021/05/28 02:53:36;;;;;;;8.23;3.73;;;8.10;99.90;;;;;;5055026;28;20444;-79
2021/05/28 02:56:04;;;;;;;10.50;3.70;;;8.10;99.90;;;;;;5071545;23;20527;-82
2021/05/28 02:58:30;;;;;;;9.73;4.50;;;8.00;99.90;;;;;;5057616;28;20458;-82
2021/05/28 03:00:57;;;;;;;8.30;4.20;;;8.00;99.90;;;;;;5057780;28;20447;-83
2021/05/28 03:03:23;;;;;;;9.00;4.80;;;8.00;99.90;;;;;;5057789;28;20574;-82
2021/05/28 03:05:51;;;;;;;9.43;4.90;;;8.00;99.90;;;;;;5057471;28;20471;-82
2021/05/28 03:08:17;;;;;;;10.07;4.70;;;7.90;99.90;;;;;;5056733;28;20456;-82
2021/05/28 03:10:43;;;;;;;9.53;3.70;;;7.90;99.90;;;;;;5057825;28;20531;-82
2021/05/28 03:13:10;;;;;;;9.60;4.20;;;7.90;99.90;;;;;;5056456;28;20483;-82
2021/05/28 03:15:36;;;;;;;10.27;4.87;;;7.80;99.90;;;;;;5056944;28;20468;-83
2021/05/28 03:18:04;;;;;;;8.73;4.10;;;7.80;99.90;;;;;;5056941;28;20457;-83
2021/05/28 03:20:35;;;;;;;10.50;4.17;;;7.80;99.90;;;;;;5056175;28;20551;-82
2021/05/28 03:23:04;;;;;;;8.23;4.70;;;7.70;99.90;;;;;;5055926;28;20487;-82
2021/05/28 03:25:30;;;;;;;8.17;4.63;;;7.70;99.90;;;;;;5057355;28;20553;-83
2021/05/28 03:27:57;;;;;;;10.07;4.90;;;7.70;99.90;;;;;;5057342;28;20447;-82
2021/05/28 03:30:24;;;;;;;8.47;4.47;;;7.70;99.90;;;;;;5057090;28;20459;-82
2021/05/28 03:32:50;;;;;;;10.10;5.10;;;7.60;99.90;;;;;;5055912;28;20527;-81
2021/05/28 03:35:17;;;;;;;11.03;4.83;;;7.60;99.90;;;;;;5057932;28;20463;-83
2021/05/28 03:37:43;;;;;;;7.00;3.83;;;7.60;99.90;;;;;;5056973;28;20460;-82
2021/05/28 03:40:12;;;;;;;7.80;4.40;;;7.60;99.90;;;;;;5056632;28;20452;-82
2021/05/28 03:42:39;;;;;;;14.73;5.43;;;7.60;99.90;;;;;;5055443;28;20456;-83
2021/05/28 03:45:07;;;;;;;8.97;4.13;;;7.60;99.90;;;;;;5057315;28;20478;-82
2021/05/28 03:47:34;;;;;;;8.77;3.90;;;7.60;99.90;;;;;;5056963;28;20505;-82
2021/05/28 03:50:00;;;;;;;9.83;4.67;;;7.60;99.90;;;;;;5055665;28;21037;-82
2021/05/28 03:52:26;;;;;;;8.97;5.00;;;7.60;99.90;;;;;;5056386;28;20448;-82
2021/05/28 03:54:53;;;;;;;8.90;4.93;;;7.60;99.90;;;;;;5055885;28;20548;-82
2021/05/28 03:57:20;;;;;;;9.80;5.00;;;7.60;99.90;;;;;;5055764;28;21027;-82
2021/05/28 03:59:48;;;;;;;10.03;5.20;;;7.60;99.90;;;;;;5056549;28;20499;-84
2021/05/28 04:02:14;;;;;;;11.17;5.37;;;7.60;99.90;;;;;;5055349;28;20452;-82
2021/05/28 04:04:42;;;;;;;10.30;4.70;;;7.60;99.90;;;;;;5056006;28;20498;-85
2021/05/28 04:07:08;;;;;;;10.93;4.53;;;7.70;99.90;;;;;;5056321;28;20452;-82
2021/05/28 04:09:35;;;;;;;11.17;5.87;;;7.60;99.90;;;;;;5056568;28;20466;-82
2021/05/28 04:12:01;;;;;;;8.77;5.23;;;7.60;99.90;;;;;;5055411;28;20448;-82
2021/05/28 04:14:28;;;;;;;8.03;4.50;;;7.70;99.90;;;;;;5056465;28;20978;-82
2021/05/28 04:16:55;;;;;;;12.10;6.20;;;7.70;99.90;;;;;;5056102;28;20562;-82
2021/05/28 04:19:21;;;;;;;8.40;4.83;;;7.70;99.90;;;;;;5056506;28;20482;-82
2021/05/28 04:21:47;;;;;;;9.57;5.10;;;7.80;99.90;;;;;;5055517;28;20832;-83
2021/05/28 04:24:14;;;;;;;8.50;5.10;;;7.80;99.90;;;;;;5056389;28;20574;-82
2021/05/28 04:26:40;;;;;;;10.10;5.80;;;7.90;99.90;;;;;;5055445;28;20986;-82
2021/05/28 04:29:06;;;;;;;10.10;5.90;;;7.90;99.90;;;;;;5055882;28;20480;-85
2021/05/28 04:31:33;;;;;;;8.87;5.30;;;8.00;99.90;;;;;;5054404;28;20452;-84
2021/05/28 04:34:00;;;;;;;9.10;4.83;;;8.00;99.90;;;;;;5056432;28;20497;-83
2021/05/28 04:36:26;;;;;;;9.33;5.33;;;8.10;99.90;;;;;;5055317;28;20562;-82
2021/05/28 04:38:52;;;;;;;9.33;6.10;;;8.10;99.90;;;;;;5055872;28;20456;-81
2021/05/28 04:41:19;;;;;;;10.20;5.75;;;8.10;99.90;;;;;;5054549;28;20527;-81
2021/05/28 04:43:45;;;;;;;9.87;6.53;;;8.20;99.90;;;;;;5055000;28;20221;-81
2021/05/28 04:46:11;;;;;;;11.73;6.57;;;8.30;99.90;;;;;;5054941;28;20505;-81
2021/05/28 04:48:38;;;;;;;10.10;6.00;;;8.40;99.90;;;;;;5055261;28;20451;-80
2021/05/28 04:51:05;;;;;;;9.37;6.33;;;8.50;99.90;;;;;;5055093;28;20994;-80
2021/05/28 04:53:31;;;;;;;8.93;5.80;;;8.60;99.90;;;;;;5054732;28;20456;-81
2021/05/28 04:55:57;;;;;;;10.43;6.27;;;8.80;99.90;;;;;;5054675;28;20996;-80
2021/05/28 04:58:24;;;;;;;14.67;6.90;;;9.00;99.90;;;;;;5056217;28;20444;-81
2021/05/28 05:00:50;;;;;;;19.73;9.90;;;9.30;99.90;;;;;;5055445;28;20919;-80
2021/05/28 05:03:16;;;;;;;20.30;11.60;;;9.50;99.90;;;;;;5054333;28;20544;-79
2021/05/28 05:05:44;;;;;;;14.90;9.60;;;9.70;99.90;;;;;;5053911;28;20559;-78
2021/05/28 05:08:10;;;;;;;17.60;12.60;;;9.90;99.90;;;;;;5054290;28;20458;-80
2021/05/28 05:10:36;;;;;;;19.10;15.03;;;10.00;99.90;;;;;;5054471;28;20455;-80
2021/05/28 05:13:10;;;;;;;27.10;17.23;;;10.20;99.90;;;;;;5054312;28;20456;-82
2021/05/28 05:15:37;;;;;;;32.33;19.27;;;10.20;99.90;;;;;;5055019;28;20567;-81
2021/05/28 05:18:04;;;;;;;33.60;19.17;;;10.10;99.90;;;;;;5055456;28;20452;-82
2021/05/28 05:20:31;;;;;;;32.47;18.30;;;10.30;99.90;;;;;;5055135;28;20448;-82
2021/05/28 05:22:58;;;;;;;34.20;18.30;;;10.40;99.90;;;;;;5054666;28;20795;-81
2021/05/28 05:25:24;;;;;;;36.03;19.10;;;10.40;99.90;;;;;;5055526;28;20529;-81
2021/05/28 05:27:50;;;;;;;32.87;19.00;;;10.50;99.90;;;;;;5056186;28;20455;-82
2021/05/28 05:30:18;;;;;;;30.33;18.17;;;10.60;99.90;;;;;;5057558;28;20980;-83
2021/05/28 05:32:44;;;;;;;38.33;21.30;;;10.60;99.90;;;;;;5055032;28;20466;-80
2021/05/28 05:35:11;;;;;;;33.63;17.90;;;10.60;99.90;;;;;;5055066;28;20988;-82
2021/05/28 05:37:37;;;;;;;24.67;16.90;;;10.70;99.90;;;;;;5055561;28;20484;-81
2021/05/28 05:40:06;;;;;;;24.90;15.33;;;10.70;99.90;;;;;;5055308;28;20451;-81
2021/05/28 05:42:32;;;;;;;32.30;15.60;;;10.70;99.90;;;;;;5054624;28;20883;-81
2021/05/28 05:44:59;;;;;;;27.50;16.60;;;10.70;99.90;;;;;;5057694;28;20491;-81
2021/05/28 05:47:25;;;;;;;22.40;14.43;;;10.80;99.90;;;;;;5058729;28;20480;-82
2021/05/28 05:49:51;;;;;;;23.47;14.17;;;10.90;99.90;;;;;;5058429;28;21032;-82
2021/05/28 05:52:18;;;;;;;27.43;15.87;;;10.80;99.90;;;;;;5057547;28;20452;-85
2021/05/28 05:54:44;;;;;;;27.53;18.10;;;10.90;99.90;;;;;;5059384;28;20479;-82
2021/05/28 05:57:11;;;;;;;26.90;17.63;;;10.70;99.90;;;;;;5059336;28;20459;-83
2021/05/28 05:59:39;;;;;;;29.73;15.43;;;10.90;99.90;;;;;;5059676;28;20452;-84
2021/05/28 06:02:05;;;;;;;29.40;16.50;;;10.90;99.90;;;;;;5058522;28;20466;-83
2021/05/28 06:04:31;;;;;;;31.90;17.27;;;11.00;99.90;;;;;;5058555;28;20526;-83
2021/05/28 06:06:58;;;;;;;36.50;19.33;;;11.10;99.90;;;;;;5058391;28;20528;-84
2021/05/28 06:09:24;;;;;;;29.27;19.23;;;11.10;99.90;;;;;;5057657;28;20899;-83
2021/05/28 06:11:51;;;;;;;38.73;21.50;;;11.20;99.90;;;;;;5056668;28;20886;-83
2021/05/28 06:14:18;;;;;;;37.93;21.60;;;11.20;99.90;;;;;;5057645;28;20823;-85
2021/05/28 06:16:44;;;;;;;26.67;18.67;;;11.10;99.90;;;;;;5057855;28;20903;-84
2021/05/28 06:19:10;;;;;;;30.93;18.43;;;11.20;99.90;;;;;;5058196;28;20462;-84
2021/05/28 06:21:37;;;;;;;29.17;18.00;;;11.30;99.90;;;;;;5057496;28;20534;-84
2021/05/28 06:24:06;;;;;;;31.50;18.30;;;11.40;99.90;;;;;;5057699;28;20552;-84
2021/05/28 06:26:32;;;;;;;28.93;16.60;;;11.50;99.90;;;;;;5058532;28;20471;-84
2021/05/28 06:28:58;;;;;;;30.03;18.83;;;11.40;99.90;;;;;;5058469;28;20527;-83
2021/05/28 06:31:26;;;;;;;38.30;19.40;;;11.50;99.90;;;;;;5056886;28;20456;-84
2021/05/28 06:33:54;;;;;;;25.97;16.17;;;11.50;99.90;;;;;;5057387;28;20960;-84
2021/05/28 06:36:20;;;;;;;29.97;17.60;;;11.50;99.90;;;;;;5058007;28;20475;-84
2021/05/28 06:38:46;;;;;;;38.37;21.13;;;11.70;99.90;;;;;;5056641;28;20539;-84
2021/05/28 06:41:13;;;;;;;30.03;18.53;;;11.60;99.90;;;;;;5056057;28;21007;-82
2021/05/28 06:43:39;;;;;;;32.60;17.87;;;11.60;99.90;;;;;;5055816;28;20570;-82
2021/05/28 06:46:05;;;;;;;32.30;20.20;;;11.70;99.90;;;;;;5054665;28;20468;-82
2021/05/28 06:48:35;;;;;;;31.53;20.63;;;11.70;99.90;;;;;;5055425;28;20824;-81
2021/05/28 06:51:04;;;;;;;34.50;19.40;;;11.70;99.90;;;;;;5054476;28;20448;-82
2021/05/28 06:53:31;;;;;;;31.23;18.33;;;11.70;99.90;;;;;;5055686;28;20971;-83
2021/05/28 06:55:57;;;;;;;33.17;17.90;;;11.90;99.90;;;;;;5054741;28;20507;-84
2021/05/28 06:58:24;;;;;;;34.13;20.67;;;12.00;99.90;;;;;;5057326;28;20534;-83
2021/05/28 07:00:50;;;;;;;35.23;20.80;;;12.10;99.90;;;;;;5055889;28;20483;-83
2021/05/28 07:03:16;;;;;;;37.77;20.90;;;12.10;99.90;;;;;;5052121;28;20520;-83
2021/05/28 07:05:44;;;;;;;30.80;18.33;;;12.20;99.90;;;;;;5055353;28;20478;-84
2021/05/28 07:08:10;;;;;;;34.70;21.07;;;12.30;99.90;;;;;;5058439;28;20712;-84
2021/05/28 07:10:37;;;;;;;32.70;19.87;;;12.40;99.90;;;;;;5057946;28;20535;-83
2021/05/28 07:13:03;;;;;;;32.07;17.80;;;12.50;99.90;;;;;;5057625;28;20956;-83
2021/05/28 07:15:29;;;;;;;32.30;19.33;;;12.50;99.90;;;;;;5059358;28;20497;-83
2021/05/28 07:17:56;;;;;;;32.77;20.10;;;12.40;99.90;;;;;;5054992;28;20547;-83
2021/05/28 07:20:22;;;;;;;33.83;21.70;;;12.30;99.90;;;;;;5057798;28;20482;-85
2021/05/28 07:22:50;;;;;;;36.60;19.90;;;12.40;99.90;;;;;;5062500;28;20466;-82
2021/05/28 07:25:17;;;;;;;40.23;22.60;;;12.40;99.90;;;;;;5062364;28;20495;-83
2021/05/28 07:27:44;;;;;;;38.40;22.40;;;12.50;99.90;;;;;;5060977;28;20459;-83
2021/05/28 07:30:12;;;;;;;45.90;23.40;;;12.50;99.90;;;;;;5072750;28;20542;-83
2021/05/28 07:32:39;;;;;;;52.77;28.20;;;12.70;99.90;;;;;;5068158;28;20448;-83
2021/05/28 07:35:07;;;;;;;51.17;26.43;;;12.60;99.90;;;;;;5070910;28;20535;-83
2021/05/28 07:37:34;;;;;;;43.60;24.70;;;12.50;99.90;;;;;;5070039;28;20483;-82
2021/05/28 07:40:01;;;;;;;43.47;24.27;;;12.60;99.90;;;;;;5069547;28;20436;-86
2021/05/28 07:42:28;;;;;;;50.10;26.20;;;12.80;99.90;;;;;;5044840;28;20456;-85
2021/05/28 07:44:54;;;;;;;59.50;30.00;;;12.90;99.90;;;;;;5061206;28;21031;-85
2021/05/28 07:47:20;;;;;;;52.80;26.90;;;12.80;99.90;;;;;;5059516;28;20476;-85
2021/05/28 07:49:47;;;;;;;54.67;27.50;;;12.90;99.90;;;;;;5063184;28;20456;-85
2021/05/28 07:52:13;;;;;;;61.07;31.70;;;13.10;99.90;;;;;;5060778;28;20462;-84
2021/05/28 07:54:39;;;;;;;67.80;33.80;;;13.20;99.90;;;;;;5062546;28;20482;-84
2021/05/28 07:57:08;;;;;;;50.53;28.60;;;13.10;99.90;;;;;;5062042;28;20840;-85
2021/05/28 07:59:34;;;;;;;58.83;31.43;;;13.30;99.90;;;;;;5061950;28;20463;-85
2021/05/28 08:02:01;;;;;;;49.63;27.43;;;13.40;99.90;;;;;;5059683;28;20972;-84
2021/05/28 08:04:27;;;;;;;49.60;27.00;;;13.60;99.90;;;;;;5061657;28;20541;-85
2021/05/28 08:06:54;;;;;;;51.67;30.03;;;14.00;99.90;;;;;;5061030;28;20526;-85
2021/05/28 08:09:20;;;;;;;55.90;30.20;;;14.00;99.90;;;;;;5062954;28;20479;-85
2021/05/28 08:11:46;;;;;;;52.23;29.07;;;14.20;99.90;;;;;;5061413;28;20538;-85
2021/05/28 08:14:14;;;;;;;53.67;31.07;;;14.30;99.90;;;;;;5070248;28;20459;-84
2021/05/28 08:16:40;;;;;;;55.73;31.37;;;14.60;99.90;;;;;;5058787;28;20979;-84
2021/05/28 08:19:07;;;;;;;50.00;28.93;;;14.80;99.90;;;;;;5058754;28;20506;-83
2021/05/28 08:21:34;;;;;;;47.07;28.47;;;14.90;99.90;;;;;;5057577;28;20558;-84
2021/05/28 08:24:00;;;;;;;50.40;30.20;;;15.10;99.90;;;;;;5057887;28;20480;-83
2021/05/28 08:26:26;;;;;;;42.90;27.87;;;14.90;99.90;;;;;;5057728;28;20467;-83
2021/05/28 08:28:52;;;;;;;41.67;26.63;;;14.70;99.90;;;;;;5057661;28;20895;-84
2021/05/28 08:31:20;;;;;;;43.70;25.67;;;15.00;99.90;;;;;;5056948;28;20555;-85
2021/05/28 08:33:46;;;;;;;48.40;29.73;;;15.50;99.90;;;;;;5057779;28;20447;-84
2021/05/28 08:36:13;;;;;;;53.87;29.63;;;16.10;99.90;;;;;;5057981;28;20509;-83
2021/05/28 08:38:39;;;;;;;40.73;23.63;;;16.60;99.90;;;;;;5058393;28;20516;-83
2021/05/28 08:41:06;;;;;;;41.30;25.13;;;17.30;99.90;;;;;;5057592;28;20505;-83
2021/05/28 08:43:32;;;;;;;48.60;27.00;;;17.70;99.90;;;;;;5059160;28;20486;-83
2021/05/28 08:46:01;;;;;;;41.23;24.13;;;17.60;99.90;;;;;;5059180;28;20486;-83
2021/05/28 08:48:29;;;;;;;41.27;26.50;;;17.80;99.90;;;;;;5059203;28;20843;-83
2021/05/28 08:50:55;;;;;;;46.17;27.93;;;18.10;99.90;;;;;;5058340;28;20460;-84
2021/05/28 08:53:24;;;;;;;43.37;27.07;;;17.90;99.90;;;;;;5056245;28;20453;-82
2021/05/28 08:55:50;;;;;;;39.77;24.57;;;17.80;99.90;;;;;;5070700;23;20969;-80
2021/05/28 08:58:19;;;;;;;45.33;26.23;;;17.90;99.90;;;;;;5056441;28;20443;-83
2021/05/28 09:00:47;;;;;;;47.83;25.53;;;17.70;99.90;;;;;;5056422;28;21000;-82
2021/05/28 09:03:25;;;;;;;42.00;25.70;;;17.70;99.90;;;;;;5055631;28;20458;-81
2021/05/28 09:05:54;;;;;;;40.67;25.53;;;17.70;99.90;;;;;;5050970;28;20463;-80
2021/05/28 09:08:25;;;;;;;42.00;25.40;;;17.90;99.90;;;;;;5055205;28;20443;-82
2021/05/28 09:10:53;;;;;;;42.50;24.97;;;18.50;99.90;;;;;;5054052;28;20462;-82
2021/05/28 09:13:22;;;;;;;42.90;26.53;;;19.00;99.90;;;;;;5053247;28;20456;-83
2021/05/28 09:15:51;;;;;;;41.63;25.03;;;19.90;99.90;;;;;;5067127;28;20856;-83
2021/05/28 09:18:17;;;;;;;44.53;31.80;;;20.50;99.90;;;;;;5073922;28;20450;-82
2021/05/28 09:20:54;;;;;;;368.63;341.23;;;21.80;99.90;;;;;;5058270;28;20512;-83
2021/05/28 09:23:21;;;;;;;425.43;399.27;;;22.60;99.90;;;;;;5056639;28;20451;-83
2021/05/28 09:25:57;;;;;;;30.60;20.07;;;23.10;99.90;;;;;;5056679;28;20478;-84
2021/05/28 09:28:25;;;;;;;30.17;20.27;;;24.10;99.90;;;;;;5056957;28;20443;-84
2021/05/28 09:30:56;;;;;;;29.53;21.50;;;24.60;99.90;;;;;;5056482;28;20463;-84
2021/05/28 09:33:24;;;;;;;26.47;20.37;;;25.60;99.90;;;;;;5056158;28;20474;-84
2021/05/28 09:35:52;;;;;;;27.53;21.57;;;26.20;99.90;;;;;;5062655;28;20501;-83
2021/05/28 09:38:24;;;;;;;31.10;22.60;;;26.40;99.90;;;;;;5062840;28;20460;-83
2021/05/28 09:40:51;;;;;;;25.00;21.63;;;27.00;99.90;;;;;;5062589;28;20455;-83
2021/05/28 09:43:26;;;;;;;26.10;19.83;;;27.50;99.90;;;;;;5061902;28;20447;-84
2021/05/28 09:45:52;;;;;;;26.37;21.50;;;28.40;99.90;;;;;;5063581;28;20505;-83
2021/05/28 09:48:30;;;;;;;27.10;20.23;;;29.00;97.80;;;;;;5064919;28;20488;-84
2021/05/28 09:50:58;;;;;;;19.73;14.70;;;29.30;96.70;;;;;;5064284;28;20589;-83
2021/05/28 09:53:31;;;;;;;17.83;14.27;;;29.40;89.70;;;;;;5060757;28;20459;-84
2021/05/28 09:55:59;;;;;;;20.60;14.80;;;30.10;93.50;;;;;;5060090;28;20511;-83
2021/05/28 09:58:25;;;;;;;17.60;13.70;;;30.50;91.40;;;;;;5048963;28;20542;-83
2021/05/28 10:00:53;;;;;;;16.67;13.50;;;31.10;86.30;;;;;;5061810;28;20444;-83
2021/05/28 10:03:22;;;;;;;17.73;13.53;;;31.90;83.60;;;;;;5062520;28;20448;-83
2021/05/28 10:05:51;;;;;;;20.07;15.70;;;32.80;78.80;;;;;;5063971;28;20480;-84
2021/05/28 10:08:19;;;;;;;16.63;13.37;;;31.90;72.00;;;;;;5060757;28;20451;-84
2021/05/28 10:10:47;;;;;;;18.50;15.23;;;32.40;74.40;;;;;;5062468;28;20491;-84
2021/05/28 10:13:16;;;;;;;16.00;12.37;;;32.20;73.90;;;;;;5060731;28;20455;-83
2021/05/28 10:15:45;;;;;;;15.10;11.50;;;33.20;72.50;;;;;;5063621;28;20467;-81
2021/05/28 10:18:12;;;;;;;14.03;12.43;;;33.80;66.60;;;;;;5069042;28;20535;-85
2021/05/28 10:20:40;;;;;;;19.40;13.13;;;34.00;63.10;;;;;;5067218;28;20508;-84
2021/05/28 10:23:08;;;;;;;15.03;11.00;;;34.00;62.60;;;;;;5066355;28;20458;-84
2021/05/28 10:25:35;;;;;;;14.03;11.17;;;35.00;62.70;;;;;;5063667;28;20502;-85
2021/05/28 10:28:05;;;;;;;14.70;11.10;;;35.20;64.00;;;;;;5064589;28;20790;-83
2021/05/28 10:30:37;;;;;;;15.97;12.80;;;34.70;56.90;;;;;;5066107;28;20480;-83
2021/05/28 10:33:21;;;;;;;15.00;9.80;;;35.40;58.40;;;;;;5053412;28;20527;-82
2021/05/28 10:35:50;;;;;;;10.43;7.43;;;35.40;55.30;;;;;;5061197;28;20553;-84
2021/05/28 10:38:47;;;;;;;13.73;9.77;;;35.50;57.20;;;;;;5065428;28;20459;-83
2021/05/28 10:41:45;;;;;;;11.17;8.03;;;35.10;52.90;;;;;;5048150;28;20464;-81
2021/05/28 10:44:19;;;;;;;10.70;8.40;;;36.30;56.40;;;;;;5059039;28;20483;-81
2021/05/28 10:47:18;;;;;;;9.37;7.60;;;36.40;52.10;;;;;;5060619;28;20480;-84
2021/05/28 10:49:45;;;;;;;10.07;7.43;;;36.40;51.40;;;;;;5061248;28;20437;-82
2021/05/28 10:52:29;;;;;;;9.30;6.00;;;36.70;48.30;;;;;;5055047;28;20631;-78
2021/05/28 10:55:02;;;;;;;8.63;5.67;;;36.60;51.00;;;;;;5035193;28;20539;-80
2021/05/28 10:57:51;;;;;;;7.03;4.00;;;36.20;48.70;;;;;;5038019;28;20447;-82
2021/05/28 11:00:29;;;;;;;6.37;4.00;;;35.30;47.60;;;;;;5041970;28;20957;-80
2021/05/28 11:03:08;;;;;;;5.97;3.30;;;35.40;46.10;;;;;;5044162;28;20458;-82
2021/05/28 11:05:50;;;;;;;6.57;3.70;;;35.90;49.40;;;;;;5059601;28;20491;-78
2021/05/28 11:08:37;;;;;;;5.70;3.90;;;36.90;49.50;;;;;;5060050;28;20455;-81
2021/05/28 11:11:05;;;;;;;7.87;4.03;;;35.90;43.40;;;;;;5064648;28;20585;-82
2021/05/28 11:13:31;;;;;;;6.07;4.07;;;36.10;49.70;;;;;;5062861;28;20450;-82
2021/05/28 11:16:00;;;;;;;6.73;4.40;;;36.20;49.50;;;;;;5078828;28;20479;-83
2021/05/28 11:18:32;;;;;;;7.40;4.70;;;36.20;50.90;;;;;;5086065;28;20823;-82
2021/05/28 11:21:15;;;;;;;6.43;4.60;;;36.50;50.20;;;;;;5061341;28;20436;-80
2021/05/28 11:23:43;;;;;;;8.30;4.10;;;38.20;46.70;;;;;;5061210;28;20452;-80
2021/05/28 11:26:22;;;;;;;6.53;4.60;;;38.40;47.50;;;;;;5066683;28;20534;-82
2021/05/28 11:28:57;;;;;;;7.30;4.53;;;38.80;49.40;;;;;;5065945;28;20535;-81
2021/05/28 11:31:26;;;;;;;6.20;3.90;;;38.90;45.30;;;;;;5066435;28;20483;-81
2021/05/28 11:33:58;;;;;;;7.30;4.60;;;38.90;44.20;;;;;;5067004;28;20555;-81
2021/05/28 11:36:50;;;;;;;6.17;4.17;;;38.00;45.20;;;;;;5061023;28;20479;-84
2021/05/28 11:39:26;;;;;;;5.87;3.90;;;37.00;43.90;;;;;;5063036;28;20501;-84
2021/05/28 11:42:01;;;;;;;5.90;4.17;;;36.20;46.80;;;;;;5066830;28;20446;-81
2021/05/28 11:44:29;;;;;;;6.70;5.13;;;37.80;44.60;;;;;;5071741;28;20495;-81
2021/05/28 11:46:57;;;;;;;7.37;4.70;;;38.00;44.20;;;;;;5080185;28;20436;-83
2021/05/28 11:49:27;;;;;;;6.70;4.43;;;37.60;40.60;;;;;;5079912;28;20443;-79
2021/05/28 11:52:07;;;;;;;10.43;4.60;;;36.90;42.20;;;;;;5081267;28;20520;-83
2021/05/28 11:54:39;;;;;;;6.43;4.40;;;36.80;48.10;;;;;;5081513;28;20478;-81
2021/05/28 11:57:07;;;;;;;6.60;4.43;;;38.60;45.10;;;;;;5081496;28;20593;-83
2021/05/28 11:59:55;;;;;;;7.00;5.30;;;39.70;44.00;;;;;;5064579;28;20980;-82
2021/05/28 12:02:41;;;;;;;6.50;4.57;;;40.40;42.90;;;;;;5059434;28;20830;-81
2021/05/28 12:11:37;;;;;;;7.00;5.07;;;40.60;40.20;;;;;;4885241;29;20445;-80
2021/05/28 12:14:04;;;;;;;6.63;4.80;;;41.30;41.90;;;;;;4975866;28;20487;-83
2021/05/28 12:16:35;;;;;;;7.57;5.20;;;40.80;38.30;;;;;;5021191;28;20547;-84
2021/05/28 12:19:03;;;;;;;5.03;2.97;;;41.20;40.20;;;;;;5037126;28;20906;-82
2021/05/28 12:21:29;;;;;;;5.10;3.20;;;41.50;41.00;;;;;;5036875;28;20976;-85
2021/05/28 12:23:57;;;;;;;5.80;3.40;;;41.40;38.00;;;;;;5036101;28;20462;-83
2021/05/28 12:26:25;;;;;;;5.10;2.70;;;41.90;40.50;;;;;;5039744;28;20472;-84
2021/05/28 12:28:54;;;;;;;8.13;3.43;;;42.40;42.00;;;;;;5040835;28;20508;-84
2021/05/28 12:31:23;;;;;;;4.90;2.60;;;42.80;40.40;;;;;;5038706;28;20651;-85
2021/05/28 12:33:52;;;;;;;4.43;2.03;;;42.40;37.90;;;;;;5039245;28;20484;-84
2021/05/28 12:36:29;;;;;;;4.37;2.30;;;43.00;38.30;;;;;;5039038;28;20547;-85
2021/05/28 12:38:57;;;;;;;4.40;2.07;;;42.80;38.30;;;;;;5032944;28;20448;-83
2021/05/28 12:41:24;;;;;;;5.10;2.70;;;42.60;37.20;;;;;;5035271;28;20825;-85
2021/05/28 12:43:53;;;;;;;4.30;2.20;;;42.70;39.50;;;;;;5035494;28;20492;-83
2021/05/28 12:46:21;;;;;;;5.00;2.00;;;43.00;38.60;;;;;;5036104;28;20508;-85
2021/05/28 12:48:51;;;;;;;6.83;3.03;;;41.80;34.40;;;;;;5036720;28;20448;-85
2021/05/28 12:51:18;;;;;;;6.00;2.87;;;42.20;35.70;;;;;;5042532;28;20462;-88